<?xml version="1.0" encoding="UTF-8" standalone="no" ?>
<gpx xmlns="http://www.topografix.com/GPX/1/1" xmlns:xsi="http://www.w3.org/2001/XMLSchema-instance" xsi:schemaLocation="http://www.topografix.com/GPX/1/1 http://www.topografix.com/GPX/1/1/gpx.xsd" version="1.1" creator="VisuGPX - https://www.visugpx.com">
  <metadata>
    <name>luzech 6 descentes</name>
    <desc><![CDATA[parcours typé enduro avec de belles descentes]]></desc>
  </metadata>
  <trk>
    <name><![CDATA[2014-04-01-08-18-57]]></name>
    <trkseg>
      <trkpt lat="44.43947" lon="1.30486">
        <ele>273.833</ele>
        <time>2014-04-01T10:54:00Z</time>
      </trkpt>
      <trkpt lat="44.43957" lon="1.30484">
        <ele>272.692</ele>
        <time>2014-04-01T10:54:05Z</time>
      </trkpt>
      <trkpt lat="44.43973" lon="1.30474">
        <ele>270.301</ele>
        <time>2014-04-01T10:54:12Z</time>
      </trkpt>
      <trkpt lat="44.43983" lon="1.3047">
        <ele>268.741</ele>
        <time>2014-04-01T10:54:17Z</time>
      </trkpt>
      <trkpt lat="44.43986" lon="1.30469">
        <ele>268.411</ele>
        <time>2014-04-01T10:54:18Z</time>
      </trkpt>
      <trkpt lat="44.43995" lon="1.30478">
        <ele>268.112</ele>
        <time>2014-04-01T10:54:22Z</time>
      </trkpt>
      <trkpt lat="44.44006" lon="1.30515">
        <ele>268.082</ele>
        <time>2014-04-01T10:54:31Z</time>
      </trkpt>
      <trkpt lat="44.44019" lon="1.30556">
        <ele>267.892</ele>
        <time>2014-04-01T10:54:40Z</time>
      </trkpt>
      <trkpt lat="44.44035" lon="1.30567">
        <ele>267.132</ele>
        <time>2014-04-01T10:54:45Z</time>
      </trkpt>
      <trkpt lat="44.44043" lon="1.3057">
        <ele>266.611</ele>
        <time>2014-04-01T10:54:47Z</time>
      </trkpt>
      <trkpt lat="44.44051" lon="1.30572">
        <ele>265.621</ele>
        <time>2014-04-01T10:54:49Z</time>
      </trkpt>
      <trkpt lat="44.4406" lon="1.30573">
        <ele>264.131</ele>
        <time>2014-04-01T10:54:51Z</time>
      </trkpt>
      <trkpt lat="44.4407" lon="1.30575">
        <ele>262.58</ele>
        <time>2014-04-01T10:54:53Z</time>
      </trkpt>
      <trkpt lat="44.44087" lon="1.30574">
        <ele>261.05</ele>
        <time>2014-04-01T10:54:56Z</time>
      </trkpt>
      <trkpt lat="44.44115" lon="1.30563">
        <ele>260.112</ele>
        <time>2014-04-01T10:55:02Z</time>
      </trkpt>
      <trkpt lat="44.44138" lon="1.30553">
        <ele>259.893</ele>
        <time>2014-04-01T10:55:09Z</time>
      </trkpt>
      <trkpt lat="44.44159" lon="1.30548">
        <ele>260.793</ele>
        <time>2014-04-01T10:55:16Z</time>
      </trkpt>
      <trkpt lat="44.44176" lon="1.30547">
        <ele>261.344</ele>
        <time>2014-04-01T10:55:22Z</time>
      </trkpt>
      <trkpt lat="44.44196" lon="1.30543">
        <ele>260.843</ele>
        <time>2014-04-01T10:55:28Z</time>
      </trkpt>
      <trkpt lat="44.44227" lon="1.30534">
        <ele>260.283</ele>
        <time>2014-04-01T10:55:36Z</time>
      </trkpt>
      <trkpt lat="44.44239" lon="1.30527">
        <ele>259.432</ele>
        <time>2014-04-01T10:55:40Z</time>
      </trkpt>
      <trkpt lat="44.44244" lon="1.30519">
        <ele>259.202</ele>
        <time>2014-04-01T10:55:42Z</time>
      </trkpt>
      <trkpt lat="44.44249" lon="1.30503">
        <ele>258.291</ele>
        <time>2014-04-01T10:55:45Z</time>
      </trkpt>
      <trkpt lat="44.44261" lon="1.30486">
        <ele>257.061</ele>
        <time>2014-04-01T10:55:49Z</time>
      </trkpt>
      <trkpt lat="44.44282" lon="1.30486">
        <ele>257.673</ele>
        <time>2014-04-01T10:55:54Z</time>
      </trkpt>
      <trkpt lat="44.44301" lon="1.30468">
        <ele>256.662</ele>
        <time>2014-04-01T10:55:59Z</time>
      </trkpt>
      <trkpt lat="44.44317" lon="1.30453">
        <ele>255.622</ele>
        <time>2014-04-01T10:56:04Z</time>
      </trkpt>
      <trkpt lat="44.44319" lon="1.30453">
        <ele>255.362</ele>
        <time>2014-04-01T10:56:05Z</time>
      </trkpt>
      <trkpt lat="44.44331" lon="1.30449">
        <ele>255.194</ele>
        <time>2014-04-01T10:56:11Z</time>
      </trkpt>
      <trkpt lat="44.44351" lon="1.30441">
        <ele>255.373</ele>
        <time>2014-04-01T10:56:17Z</time>
      </trkpt>
      <trkpt lat="44.44368" lon="1.30426">
        <ele>255.083</ele>
        <time>2014-04-01T10:56:22Z</time>
      </trkpt>
      <trkpt lat="44.44372" lon="1.30422">
        <ele>254.983</ele>
        <time>2014-04-01T10:56:23Z</time>
      </trkpt>
      <trkpt lat="44.44391" lon="1.30405">
        <ele>254.403</ele>
        <time>2014-04-01T10:56:29Z</time>
      </trkpt>
      <trkpt lat="44.44399" lon="1.30398">
        <ele>254.094</ele>
        <time>2014-04-01T10:56:34Z</time>
      </trkpt>
      <trkpt lat="44.44406" lon="1.30388">
        <ele>253.244</ele>
        <time>2014-04-01T10:56:40Z</time>
      </trkpt>
    </trkseg>
  </trk>
</gpx>